Bedford, IN

1:03 AM EST on December 27, 2014 (GMT -0500)
RAWS HARDIN RIDGE IN US | Change Station
CLOSE
Current Station
Personal Weather Station
Location: Heltonville, IN
Elevation: 750 ft
Nearby Weather Stations

Elev 750 ft 39.01 °N, 86.44 °W | Updated 54 minutes ago

Overcast
Overcast
44 °F
Feels Like 44 °F
N
2
Wind Variable Wind from SSE
Gusts 4.0 mph

Today
High -- | Low -- °F
--% Chance of Precip.
Yesterday
High -- | Low -- °F
Precip. -- in
8:03 AM 5:30 PM
Waxing Crescent, 33% visible
Pressure 30.15 in
Visibility 10.0 miles
Clouds Few 4100 ft
Few 8000 ft
Windchill 44 °F
Dew Point 37 °F
Humidity 77%
Rainfall 0.00 in
Snow Depth Not available.
UV 0 out of 12
Pollen .10 out of 12
Air Quality Not available.
Flu Activity Not available.
METAR KBMG 270553Z AUTO 18005KT 10SM FEW041 FEW080 07/02 A3015 RMK AO2 SLP210 T00670022 10094 20061 50006

More Conditions Fewer Conditions

Pressure 30.15 in
Visibility 10.0 miles
Clouds Few 4100 ft
Few 8000 ft
Windchill 44 °F
Dew Point 37 °F
Humidity 77%
Rainfall 0.00 in
Snow Depth Not available.
UV 0 out of 12
Pollen .10 out of 12
Air Quality Not available.
Flu Activity Not available.
METAR KBMG 270553Z AUTO 18005KT 10SM FEW041 FEW080 07/02 A3015 RMK AO2 SLP210 T00670022 10094 20061 50006

More Conditions Fewer Conditions

10-Day Weather Forecast

Almanac

Astronomy

Dec. 27, 2014 Rise Set
Actual Time
Civil Twilight
Nautical Twilight
Astronomical Twilight
Moon
Length of Visible Light
Length of Day
Tomorrow will be .
, % of the Moon is Illuminated

Today's Extremes

State Highs State Lows

Community

WunderPhotos

Upload Photos

1,780,853 photos uploaded!

WunderBlogs® & News

Nearby

Air Quality

  Air Quality AQ Index Pollutant
Not available.

Snow Depth

Station Depth Elevation

Earthquake Activity

City Distance Mag. Time & Date
Minimum magnitude displayed is 2.5.

Coastal Water Temperatures

Place Temperature

Nearby Weather Stations